createdAt,value
2023-05-21T00:00:29.082Z,14.10
2023-05-21T00:01:29.067Z,14.12
2023-05-21T00:02:29.143Z,14.10
2023-05-21T00:03:29.124Z,14.04
2023-05-21T00:04:29.070Z,14.10
2023-05-21T00:05:29.057Z,14.01
2023-05-21T00:06:29.127Z,14.06
2023-05-21T00:07:29.062Z,14.04
2023-05-21T00:08:29.024Z,13.96
2023-05-21T00:09:29.027Z,14.01
2023-05-21T00:10:29.058Z,13.99
2023-05-21T00:11:28.990Z,13.91
2023-05-21T00:12:29.015Z,13.95
2023-05-21T00:13:28.997Z,13.94
2023-05-21T00:14:28.973Z,13.91
2023-05-21T00:15:28.975Z,13.92
2023-05-21T00:16:29.058Z,13.98
2023-05-21T00:17:28.989Z,14.01
2023-05-21T00:18:28.957Z,13.98
2023-05-21T00:19:29.006Z,14.12
2023-05-21T00:20:28.934Z,13.94
2023-05-21T00:21:28.933Z,14.04
2023-05-21T00:22:28.924Z,13.96
2023-05-21T00:23:28.921Z,13.89
2023-05-21T00:24:28.901Z,13.96
2023-05-21T00:25:28.904Z,13.87
2023-05-21T00:26:28.914Z,13.94
2023-05-21T00:27:28.905Z,13.91
2023-05-21T00:28:28.880Z,13.94
2023-05-21T00:29:28.872Z,13.87
2023-05-21T00:30:28.886Z,13.83
2023-05-21T00:31:28.907Z,13.81
2023-05-21T00:32:28.878Z,13.79
2023-05-21T00:33:28.839Z,13.87
2023-05-21T00:34:28.833Z,13.83
2023-05-21T00:35:28.833Z,13.84
2023-05-21T00:36:28.848Z,13.81
2023-05-21T00:37:28.819Z,13.81
2023-05-21T00:38:28.815Z,13.87
2023-05-21T00:39:28.805Z,13.79
2023-05-21T00:40:28.810Z,13.83
2023-05-21T00:41:28.802Z,13.79
2023-05-21T00:42:28.790Z,13.70
2023-05-21T00:43:28.800Z,13.77
2023-05-21T00:44:28.764Z,13.80
2023-05-21T00:45:28.776Z,13.74
2023-05-21T00:46:28.799Z,13.73
2023-05-21T00:48:28.749Z,13.73
2023-05-21T00:49:28.732Z,13.76
2023-05-21T00:50:28.735Z,13.79
2023-05-21T00:51:28.726Z,13.80
2023-05-21T00:52:28.711Z,13.69
2023-05-21T00:53:28.702Z,13.81
2023-05-21T00:54:28.725Z,13.71
2023-05-21T00:55:28.696Z,13.79
2023-05-21T00:56:28.694Z,13.76
2023-05-21T00:57:28.687Z,13.69
2023-05-21T00:58:28.670Z,13.80
2023-05-21T00:59:28.667Z,13.83
2023-05-21T01:00:28.655Z,13.88
2023-05-21T01:01:28.743Z,13.70
2023-05-21T01:02:28.740Z,13.73
2023-05-21T01:03:28.747Z,13.67
2023-05-21T01:04:28.638Z,13.73
2023-05-21T01:05:28.637Z,13.74
2023-05-21T01:06:28.610Z,13.84
2023-05-21T01:07:28.647Z,13.73
2023-05-21T01:08:28.610Z,13.81
2023-05-21T01:09:28.611Z,13.79
2023-05-21T01:10:28.612Z,13.81
2023-05-21T01:11:28.588Z,13.73
2023-05-21T01:12:28.575Z,13.71
2023-05-21T01:13:28.579Z,13.74
2023-05-21T01:14:28.571Z,13.80
2023-05-21T01:15:28.566Z,13.71
2023-05-21T01:16:28.566Z,13.76
2023-05-21T01:17:28.587Z,13.79
2023-05-21T01:18:28.568Z,13.83
2023-05-21T01:19:28.557Z,13.80
2023-05-21T01:20:28.574Z,13.80
2023-05-21T01:21:28.517Z,13.84
2023-05-21T01:22:28.543Z,13.83
2023-05-21T01:23:28.502Z,13.83
2023-05-21T01:24:28.497Z,13.77
2023-05-21T01:25:28.509Z,13.73
2023-05-21T01:26:28.497Z,13.79
2023-05-21T01:27:28.490Z,13.80
2023-05-21T01:28:28.480Z,13.74
2023-05-21T01:29:28.474Z,13.79
2023-05-21T01:30:28.465Z,13.70
2023-05-21T01:31:28.498Z,13.80
2023-05-21T01:32:28.473Z,13.74
2023-05-21T01:33:28.518Z,13.73
2023-05-21T01:34:28.427Z,13.80
2023-05-21T01:35:28.436Z,13.73
2023-05-21T01:36:28.443Z,13.67
2023-05-21T01:37:28.427Z,13.74
2023-05-21T01:38:28.415Z,13.77
2023-05-21T01:39:28.410Z,13.83
2023-05-21T01:40:28.400Z,13.76
2023-05-21T01:41:28.436Z,13.83
2023-05-21T01:42:28.389Z,13.73
2023-05-21T01:43:28.388Z,13.77
2023-05-21T01:44:28.381Z,13.70
2023-05-21T01:45:28.365Z,13.70
2023-05-21T01:46:28.442Z,13.74
2023-05-21T01:47:28.368Z,13.80
2023-05-21T01:48:28.359Z,13.74
2023-05-21T01:49:28.349Z,13.79
2023-05-21T01:50:28.357Z,13.76
2023-05-21T01:51:28.336Z,13.76
2023-05-21T01:52:29.329Z,13.81
2023-05-21T01:53:28.317Z,13.70
2023-05-21T01:54:28.305Z,13.80
2023-05-21T01:55:28.314Z,13.67
2023-05-21T01:56:28.301Z,13.73
2023-05-21T01:57:28.277Z,13.74
2023-05-21T01:58:28.289Z,13.70
2023-05-21T01:59:28.273Z,13.73
2023-05-21T02:00:28.284Z,13.65
2023-05-21T02:01:28.285Z,13.67
2023-05-21T02:02:28.308Z,13.67
2023-05-21T02:03:28.351Z,13.71
2023-05-21T02:04:28.234Z,13.61
2023-05-21T02:05:28.229Z,13.67
2023-05-21T02:06:28.217Z,13.62
2023-05-21T02:07:28.215Z,13.65
2023-05-21T02:08:28.225Z,13.59
2023-05-21T02:09:28.199Z,13.58
2023-05-21T02:10:28.244Z,13.56
2023-05-21T02:11:28.199Z,13.47
2023-05-21T02:12:28.190Z,13.54
2023-05-21T02:13:28.191Z,13.59
2023-05-21T02:14:28.206Z,13.65
2023-05-21T02:15:28.167Z,13.56
2023-05-21T02:16:28.176Z,13.51
2023-05-21T02:17:28.171Z,13.56
2023-05-21T02:18:28.166Z,13.46
2023-05-21T02:19:28.261Z,13.51
2023-05-21T02:20:28.134Z,13.51
2023-05-21T02:21:28.138Z,13.47
2023-05-21T02:22:28.133Z,13.41
2023-05-21T02:23:28.150Z,13.47
2023-05-21T02:24:28.114Z,13.43
2023-05-21T02:25:28.104Z,13.44
2023-05-21T02:26:28.105Z,13.44
2023-05-21T02:27:28.096Z,13.47
2023-05-21T02:28:28.083Z,13.41
2023-05-21T02:29:28.103Z,13.46
2023-05-21T02:30:28.098Z,13.44
2023-05-21T02:31:28.056Z,13.38
2023-05-21T02:32:28.088Z,13.43
2023-05-21T02:33:28.075Z,13.36
2023-05-21T02:34:28.108Z,13.30
2023-05-21T02:35:28.054Z,13.37
2023-05-21T02:36:28.033Z,13.43
2023-05-21T02:37:28.024Z,13.30
2023-05-21T02:38:28.024Z,13.46
2023-05-21T02:39:28.009Z,13.51
2023-05-21T02:40:28.023Z,13.32
2023-05-21T02:41:28.009Z,13.38
2023-05-21T02:42:27.992Z,13.38
2023-05-21T02:43:27.991Z,13.38
2023-05-21T02:44:28.002Z,13.27
2023-05-21T02:45:27.979Z,13.40
2023-05-21T02:46:28.014Z,13.40
2023-05-21T02:47:27.987Z,13.40
2023-05-21T02:48:27.971Z,13.32
2023-05-21T02:49:27.987Z,13.36
2023-05-21T02:50:27.936Z,13.32
2023-05-21T02:51:27.956Z,13.33
2023-05-21T02:52:27.921Z,13.33
2023-05-21T02:53:28.924Z,13.40
2023-05-21T02:54:27.934Z,13.37
2023-05-21T02:55:27.914Z,13.38
2023-05-21T02:56:27.913Z,13.37
2023-05-21T02:57:27.903Z,13.47
2023-05-21T02:58:27.894Z,13.55
2023-05-21T02:59:27.878Z,13.49
2023-05-21T03:00:27.873Z,13.51
2023-05-21T03:01:27.932Z,13.43
2023-05-21T03:02:27.909Z,13.40
2023-05-21T03:03:28.077Z,13.44
2023-05-21T03:04:27.850Z,13.49
2023-05-21T03:05:27.866Z,13.37
2023-05-21T03:06:27.839Z,13.38
2023-05-21T03:07:27.835Z,13.44
2023-05-21T03:08:27.847Z,13.40
2023-05-21T03:09:27.825Z,13.38
2023-05-21T03:10:27.806Z,13.41
2023-05-21T03:11:27.806Z,13.51
2023-05-21T03:12:27.812Z,13.44
2023-05-21T03:13:27.823Z,13.36
2023-05-21T03:14:27.784Z,13.38
2023-05-21T03:15:27.821Z,13.40
2023-05-21T03:16:27.856Z,13.49
2023-05-21T03:17:27.776Z,13.52
2023-05-21T03:18:27.795Z,13.41
2023-05-21T03:19:27.824Z,13.36
2023-05-21T03:20:27.767Z,13.47
2023-05-21T03:21:27.754Z,13.49
2023-05-21T03:22:27.729Z,13.38
2023-05-21T03:23:27.726Z,13.47
2023-05-21T03:24:27.729Z,13.43
2023-05-21T03:25:27.712Z,13.38
2023-05-21T03:26:27.721Z,13.40
2023-05-21T03:27:27.710Z,13.41
2023-05-21T03:28:27.712Z,13.40
2023-05-21T03:29:27.689Z,13.38
2023-05-21T03:30:27.696Z,13.41
2023-05-21T03:31:27.738Z,13.37
2023-05-21T03:32:27.706Z,13.44
2023-05-21T03:33:27.678Z,13.40
2023-05-21T03:34:27.661Z,13.37
2023-05-21T03:35:27.704Z,13.33
2023-05-21T03:36:27.649Z,13.33
2023-05-21T03:37:27.651Z,13.40
2023-05-21T03:38:27.654Z,13.40
2023-05-21T03:39:27.639Z,13.47
2023-05-21T03:40:27.655Z,13.47
2023-05-21T03:41:27.621Z,13.43
2023-05-21T03:42:27.628Z,13.47
2023-05-21T03:43:27.613Z,13.51
2023-05-21T03:44:27.599Z,13.43
2023-05-21T03:45:27.628Z,13.54
2023-05-21T03:46:27.612Z,13.51
2023-05-21T03:47:28.622Z,13.52
2023-05-21T03:48:27.595Z,13.55
2023-05-21T03:49:27.571Z,13.51
2023-05-21T03:50:27.572Z,13.58
2023-05-21T03:51:27.599Z,13.46
2023-05-21T03:52:27.602Z,13.54
2023-05-21T03:53:27.546Z,13.49
2023-05-21T03:54:27.550Z,13.52
2023-05-21T03:55:27.574Z,13.56
2023-05-21T03:56:27.558Z,13.58
2023-05-21T03:57:27.523Z,13.59
2023-05-21T03:58:27.513Z,13.51
2023-05-21T03:59:27.522Z,13.59
2023-05-21T04:00:27.501Z,13.62
2023-05-21T04:01:27.534Z,13.52
2023-05-21T04:02:27.692Z,13.52
2023-05-21T04:03:27.646Z,13.61
2023-05-21T04:04:27.519Z,13.55
2023-05-21T04:05:27.472Z,13.65
2023-05-21T04:06:27.496Z,13.70
2023-05-21T04:07:27.467Z,13.65
2023-05-21T04:08:27.444Z,13.62
2023-05-21T04:09:27.451Z,13.76
2023-05-21T04:10:27.457Z,13.65
2023-05-21T04:11:27.432Z,13.84
2023-05-21T04:12:27.448Z,13.79
2023-05-21T04:13:27.412Z,13.87
2023-05-21T04:14:27.415Z,13.89
2023-05-21T04:15:27.406Z,13.94
2023-05-21T04:16:27.428Z,13.87
2023-05-21T04:17:27.491Z,13.92
2023-05-21T04:18:27.390Z,13.96
2023-05-21T04:19:27.417Z,14.06
2023-05-21T04:20:27.387Z,13.95
2023-05-21T04:21:27.375Z,13.94
2023-05-21T04:22:27.368Z,13.96
2023-05-21T04:23:27.380Z,13.94
2023-05-21T04:24:27.342Z,14.02
2023-05-21T04:25:28.335Z,14.01
2023-05-21T04:26:27.332Z,14.02
2023-05-21T04:27:27.341Z,14.07
2023-05-21T04:28:27.335Z,14.01
2023-05-21T04:29:27.302Z,14.04
2023-05-21T04:30:27.317Z,14.01
2023-05-21T04:31:27.332Z,14.07
2023-05-21T04:32:27.336Z,14.07
2023-05-21T04:33:27.310Z,14.17
2023-05-21T04:34:27.287Z,14.14
2023-05-21T04:35:27.287Z,14.17
2023-05-21T04:36:27.255Z,14.17
2023-05-21T04:37:27.266Z,14.28
2023-05-21T04:38:27.242Z,14.37
2023-05-21T04:39:27.235Z,14.38
2023-05-21T04:40:27.240Z,14.38
2023-05-21T04:41:27.225Z,14.29
2023-05-21T04:42:27.227Z,14.43
2023-05-21T04:43:27.239Z,14.42
2023-05-21T04:44:27.220Z,14.35
2023-05-21T04:45:27.186Z,14.46
2023-05-21T04:46:27.235Z,14.50
2023-05-21T04:47:27.234Z,14.54
2023-05-21T04:48:27.296Z,14.53
2023-05-21T04:49:27.168Z,14.57
2023-05-21T04:50:27.193Z,14.52
2023-05-21T04:51:27.154Z,14.61
2023-05-21T04:52:27.145Z,14.52
2023-05-21T04:53:27.132Z,14.52
2023-05-21T04:54:27.135Z,14.54
2023-05-21T04:55:27.147Z,14.57
2023-05-21T04:56:27.140Z,14.71
2023-05-21T04:57:27.108Z,14.60
2023-05-21T04:58:27.107Z,14.60
2023-05-21T04:59:27.098Z,14.71
2023-05-21T05:00:27.092Z,14.78
2023-05-21T05:01:27.325Z,14.75
2023-05-21T05:02:27.114Z,14.71
2023-05-21T05:03:27.148Z,14.80
2023-05-21T05:04:27.066Z,14.84
2023-05-21T05:05:27.059Z,14.87
2023-05-21T05:06:27.073Z,14.95
2023-05-21T05:07:27.035Z,15.06
2023-05-21T05:08:27.032Z,15.02
2023-05-21T05:09:27.034Z,15.06
2023-05-21T05:10:27.011Z,15.21
2023-05-21T05:11:27.029Z,15.11
2023-05-21T05:12:27.034Z,15.21
2023-05-21T05:13:26.999Z,15.20
2023-05-21T05:14:26.984Z,15.11
2023-05-21T05:15:26.983Z,15.28
2023-05-21T05:16:27.036Z,15.21
2023-05-21T05:17:27.019Z,15.31
2023-05-21T05:18:26.957Z,15.27
2023-05-21T05:19:27.077Z,15.33
2023-05-21T05:20:26.948Z,15.49
2023-05-21T05:21:26.953Z,15.42
2023-05-21T05:22:26.922Z,15.51
2023-05-21T05:23:26.937Z,15.52
2023-05-21T05:24:26.919Z,15.52
2023-05-21T05:25:26.913Z,15.61
2023-05-21T05:26:26.920Z,15.59
2023-05-21T05:27:26.890Z,15.67
2023-05-21T05:28:26.906Z,15.75
2023-05-21T05:29:26.881Z,15.75
2023-05-21T05:30:26.894Z,15.74
2023-05-21T05:31:26.985Z,15.88
2023-05-21T05:32:26.884Z,15.93
2023-05-21T05:33:26.836Z,16.06
2023-05-21T05:34:26.847Z,16.11
2023-05-21T05:35:26.843Z,16.16
2023-05-21T05:36:26.843Z,16.15
2023-05-21T05:37:26.823Z,16.06
2023-05-21T05:38:26.812Z,16.12
2023-05-21T05:39:26.805Z,16.11
2023-05-21T05:40:26.817Z,16.07
2023-05-21T05:41:26.807Z,16.11
2023-05-21T05:42:26.791Z,16.14
2023-05-21T05:43:26.771Z,16.06
2023-05-21T05:44:26.768Z,16.15
2023-05-21T05:45:26.798Z,16.03
2023-05-21T05:46:26.773Z,15.99
2023-05-21T05:47:26.790Z,16.11
2023-05-21T05:48:26.744Z,16.09
2023-05-21T05:49:26.726Z,16.12
2023-05-21T05:50:26.746Z,16.25
2023-05-21T05:51:26.714Z,16.18
2023-05-21T05:52:26.729Z,16.12
2023-05-21T05:53:26.696Z,16.07
2023-05-21T05:54:26.700Z,16.16
2023-05-21T05:55:26.738Z,16.16
2023-05-21T05:56:26.682Z,16.23
2023-05-21T05:57:26.693Z,16.14
2023-05-21T05:58:26.672Z,16.18
2023-05-21T05:59:26.669Z,16.38
2023-05-21T06:00:26.646Z,16.40
2023-05-21T06:01:26.668Z,16.45
2023-05-21T06:02:26.688Z,16.42
2023-05-21T06:03:26.753Z,16.48
2023-05-21T06:04:26.633Z,16.53
2023-05-21T06:05:26.643Z,16.56
2023-05-21T06:06:26.619Z,16.62
2023-05-21T06:07:26.605Z,16.63
2023-05-21T06:08:26.611Z,16.55
2023-05-21T06:09:26.612Z,16.44
2023-05-21T06:10:26.584Z,16.60
2023-05-21T06:11:26.605Z,16.44
2023-05-21T06:12:26.568Z,16.55
2023-05-21T06:13:26.572Z,16.63
2023-05-21T06:14:26.565Z,16.75
2023-05-21T06:15:26.576Z,16.80
2023-05-21T06:16:26.666Z,16.81
2023-05-21T06:17:26.588Z,16.83
2023-05-21T06:18:26.545Z,16.90
2023-05-21T06:19:26.609Z,17.03
2023-05-21T06:20:26.522Z,17.00
2023-05-21T06:21:26.538Z,17.07
2023-05-21T06:22:26.503Z,17.20
2023-05-21T06:23:26.499Z,17.25
2023-05-21T06:24:26.494Z,17.23
2023-05-21T06:25:26.506Z,17.30
2023-05-21T06:26:26.491Z,17.26
2023-05-21T06:27:26.474Z,17.33
2023-05-21T06:28:26.462Z,17.48
2023-05-21T06:29:26.483Z,17.46
2023-05-21T06:30:26.476Z,17.43
2023-05-21T06:31:26.472Z,17.41
2023-05-21T06:32:26.491Z,17.57
2023-05-21T06:33:26.550Z,17.66
2023-05-21T06:34:26.434Z,17.69
2023-05-21T06:35:26.425Z,17.71
2023-05-21T06:36:26.437Z,17.69
2023-05-21T06:37:26.815Z,17.87
2023-05-21T06:38:27.401Z,17.94
2023-05-21T06:39:26.395Z,17.85
2023-05-21T06:40:26.393Z,17.91
2023-05-21T06:41:26.384Z,17.95
2023-05-21T06:42:26.381Z,18.04
2023-05-21T06:43:26.381Z,18.33
2023-05-21T06:44:26.361Z,18.29
2023-05-21T06:45:26.381Z,18.28
2023-05-21T06:46:26.417Z,18.28
2023-05-21T06:47:26.367Z,18.52
2023-05-21T06:48:26.330Z,18.54
2023-05-21T06:49:26.324Z,18.67
2023-05-21T06:50:26.327Z,18.79
2023-05-21T06:51:27.345Z,18.90
2023-05-21T06:52:26.311Z,18.91
2023-05-21T06:53:26.335Z,19.05
2023-05-21T06:54:27.116Z,19.13
2023-05-21T06:55:27.288Z,19.11
2023-05-21T06:56:26.316Z,19.18
2023-05-21T06:57:26.287Z,19.21
2023-05-21T06:58:26.269Z,19.39
2023-05-21T06:59:26.260Z,19.23
2023-05-21T07:00:26.259Z,19.40
2023-05-21T07:01:26.379Z,19.32
2023-05-21T07:02:26.374Z,19.31
2023-05-21T07:03:26.307Z,19.54
2023-05-21T07:04:26.226Z,19.61
2023-05-21T07:05:26.235Z,19.76
2023-05-21T07:06:26.308Z,19.75
2023-05-21T07:07:26.223Z,19.78
2023-05-21T07:08:26.209Z,19.83
2023-05-21T07:09:26.221Z,20.08
2023-05-21T07:10:26.206Z,19.98
2023-05-21T07:11:26.248Z,20.05
2023-05-21T07:12:26.175Z,20.31
2023-05-21T07:13:26.178Z,20.68
2023-05-21T07:14:26.456Z,20.84
2023-05-21T07:15:26.162Z,21.06
2023-05-21T07:16:26.179Z,21.09
2023-05-21T07:17:26.161Z,21.19
2023-05-21T07:18:26.134Z,21.30
2023-05-21T07:19:26.185Z,21.38
2023-05-21T07:20:26.159Z,21.50
2023-05-21T07:21:26.115Z,21.54
2023-05-21T07:22:28.066Z,21.59
2023-05-21T07:23:27.116Z,21.59
2023-05-21T07:24:26.080Z,21.36
2023-05-21T07:25:26.118Z,21.34
2023-05-21T07:26:26.085Z,21.38
2023-05-21T07:27:26.430Z,21.48
2023-05-21T07:28:26.062Z,21.56
2023-05-21T07:29:26.058Z,21.67
2023-05-21T07:30:26.056Z,21.66
2023-05-21T07:31:26.110Z,21.69
2023-05-21T07:32:26.042Z,21.79
2023-05-21T07:33:26.031Z,22.02
2023-05-21T07:34:26.049Z,22.01
2023-05-21T07:35:26.021Z,22.09
2023-05-21T07:36:26.010Z,22.09
2023-05-21T07:37:26.049Z,22.10
2023-05-21T07:38:26.007Z,22.29
2023-05-21T07:39:25.986Z,22.57
2023-05-21T07:40:25.982Z,22.60
2023-05-21T07:41:25.999Z,22.87
2023-05-21T07:42:25.968Z,23.02
2023-05-21T07:43:25.960Z,23.34
2023-05-21T07:44:25.963Z,23.57
2023-05-21T07:45:25.955Z,23.77
2023-05-21T07:46:25.987Z,23.83
2023-05-21T07:47:26.034Z,24.02
2023-05-21T07:48:25.932Z,24.02
2023-05-21T07:49:25.928Z,24.19
2023-05-21T07:50:25.917Z,24.22
2023-05-21T07:51:25.962Z,24.22
2023-05-21T07:52:25.927Z,24.26
2023-05-21T07:53:25.893Z,24.45
2023-05-21T07:54:25.897Z,24.39
2023-05-21T07:55:25.916Z,24.49
2023-05-21T07:56:25.910Z,24.71
2023-05-21T07:57:25.879Z,24.76
2023-05-21T07:58:25.868Z,24.41
2023-05-21T07:59:25.873Z,24.22
2023-05-21T08:00:25.857Z,24.26
2023-05-21T08:01:25.894Z,24.16
2023-05-21T08:02:25.966Z,24.29
2023-05-21T08:03:25.923Z,24.23
2023-05-21T08:04:26.017Z,24.20
2023-05-21T08:05:25.852Z,24.52
2023-05-21T08:06:25.827Z,24.56
2023-05-21T08:07:25.822Z,24.67
2023-05-21T08:08:25.815Z,24.85
2023-05-21T08:09:25.824Z,25.31
2023-05-21T08:10:25.803Z,25.74
2023-05-21T08:11:26.433Z,26.25
2023-05-21T08:12:25.800Z,26.58
2023-05-21T08:13:26.010Z,27.01
2023-05-21T08:14:25.779Z,27.04
2023-05-21T08:15:25.777Z,27.09
2023-05-21T08:16:25.843Z,27.13
2023-05-21T08:17:25.789Z,27.21
2023-05-21T08:18:25.868Z,26.96
2023-05-21T08:19:25.804Z,27.10
2023-05-21T08:20:25.732Z,26.91
2023-05-21T08:21:25.726Z,26.87
2023-05-21T08:22:25.728Z,26.74
2023-05-21T08:23:25.717Z,26.67
2023-05-21T08:24:25.707Z,26.61
2023-05-21T08:25:25.697Z,26.64
2023-05-21T08:26:25.793Z,26.55
2023-05-21T08:27:25.855Z,26.57
2023-05-21T08:28:25.684Z,26.39
2023-05-21T08:29:25.674Z,26.29
2023-05-21T08:30:25.691Z,26.40
2023-05-21T08:31:25.688Z,26.54
2023-05-21T08:32:25.663Z,26.40
2023-05-21T08:33:25.671Z,26.64
2023-05-21T08:34:25.639Z,26.47
2023-05-21T08:35:25.634Z,26.59
2023-05-21T08:36:25.625Z,26.61
2023-05-21T08:37:25.618Z,26.83
2023-05-21T08:38:26.989Z,26.94
2023-05-21T08:39:25.614Z,27.04
2023-05-21T08:40:25.588Z,26.62
2023-05-21T08:41:25.589Z,26.61
2023-05-21T08:42:36.335Z,26.54
2023-05-21T08:43:27.599Z,26.54
2023-05-21T08:44:25.580Z,26.64
2023-05-21T08:45:25.575Z,26.84
2023-05-21T08:46:25.635Z,27.06
2023-05-21T08:47:25.578Z,27.17
2023-05-21T08:48:25.566Z,27.14
2023-05-21T08:49:27.163Z,27.33
2023-05-21T08:50:26.547Z,27.35
2023-05-21T08:51:25.545Z,27.35
2023-05-21T08:52:25.524Z,27.28
2023-05-21T08:53:28.729Z,27.16
2023-05-21T08:54:26.510Z,27.14
2023-05-21T08:55:25.515Z,26.87
2023-05-21T08:56:25.503Z,26.74
2023-05-21T08:57:25.510Z,26.65
2023-05-21T08:58:25.501Z,26.28
2023-05-21T08:59:25.489Z,26.29
2023-05-21T09:00:25.494Z,26.39
2023-05-21T09:01:26.651Z,26.61
2023-05-21T09:02:26.536Z,26.62
2023-05-21T09:03:25.518Z,26.76
2023-05-21T09:04:25.498Z,26.79
2023-05-21T09:05:25.449Z,26.84
2023-05-21T09:06:25.426Z,26.92
2023-05-21T09:07:25.426Z,26.98
2023-05-21T09:08:25.425Z,26.98
2023-05-21T09:09:25.418Z,26.91
2023-05-21T09:10:25.412Z,26.83
2023-05-21T09:11:25.405Z,26.74
2023-05-21T09:12:25.412Z,26.84
2023-05-21T09:13:25.400Z,26.94
2023-05-21T09:14:25.509Z,27.05
2023-05-21T09:15:25.424Z,27.26
2023-05-21T09:16:25.447Z,27.35
2023-05-21T09:17:25.440Z,27.48
2023-05-21T09:18:25.366Z,27.80
2023-05-21T09:19:25.410Z,27.79
2023-05-21T09:20:25.378Z,27.92
2023-05-21T09:21:25.360Z,27.69
2023-05-21T09:22:25.329Z,27.66
2023-05-21T09:23:25.340Z,27.66
2023-05-21T09:24:25.342Z,27.69
2023-05-21T09:25:25.352Z,27.77
2023-05-21T09:26:25.329Z,27.85
2023-05-21T09:27:25.301Z,27.76
2023-05-21T09:28:25.300Z,27.74
2023-05-21T09:29:25.292Z,27.71
2023-05-21T09:30:35.714Z,27.82
2023-05-21T09:31:27.418Z,27.82
2023-05-21T09:32:25.312Z,27.91
2023-05-21T09:33:25.259Z,27.89
2023-05-21T09:34:25.290Z,27.88
2023-05-21T09:35:25.256Z,27.77
2023-05-21T09:36:25.253Z,27.86
2023-05-21T09:37:27.639Z,27.77
2023-05-21T09:38:26.259Z,27.82
2023-05-21T09:39:25.240Z,27.77
2023-05-21T09:40:25.246Z,27.57
2023-05-21T09:41:25.241Z,27.21
2023-05-21T09:42:25.210Z,27.16
2023-05-21T09:43:25.210Z,27.36
2023-05-21T09:44:25.209Z,27.47
2023-05-21T09:45:25.485Z,27.58
2023-05-21T09:46:25.204Z,27.51
2023-05-21T09:47:25.206Z,27.69
2023-05-21T09:48:25.189Z,27.69
2023-05-21T09:49:25.237Z,27.74
2023-05-21T09:50:25.172Z,27.76
2023-05-21T09:51:25.164Z,27.89
2023-05-21T09:52:25.150Z,28.19
2023-05-21T09:53:25.174Z,28.17
2023-05-21T09:54:25.170Z,28.17
2023-05-21T09:55:25.141Z,28.28
2023-05-21T09:56:25.125Z,28.38
2023-05-21T09:57:25.959Z,28.40
2023-05-21T09:58:25.123Z,28.56
2023-05-21T09:59:25.147Z,28.70
2023-05-21T10:00:25.124Z,28.85
2023-05-21T10:01:25.222Z,28.88
2023-05-21T10:02:25.118Z,28.87
2023-05-21T10:03:25.098Z,28.65
2023-05-21T10:05:25.088Z,28.51
2023-05-21T10:06:25.071Z,28.35
2023-05-21T10:07:25.068Z,28.43
2023-05-21T10:08:25.062Z,28.58
2023-05-21T10:09:25.084Z,28.48
2023-05-21T10:10:25.088Z,28.65
2023-05-21T10:11:25.036Z,28.73
2023-05-21T10:12:25.031Z,29.00
2023-05-21T10:13:25.038Z,29.06
2023-05-21T10:14:25.043Z,29.08
2023-05-21T10:15:25.024Z,29.45
2023-05-21T10:16:25.042Z,29.57
2023-05-21T10:17:25.040Z,29.89
2023-05-21T10:18:24.989Z,30.12
2023-05-21T10:19:25.762Z,30.09
2023-05-21T10:20:24.999Z,30.09
2023-05-21T10:21:24.984Z,30.00
2023-05-21T10:22:24.968Z,29.97
2023-05-21T10:23:24.956Z,29.84
2023-05-21T10:24:24.961Z,29.70
2023-05-21T10:25:24.979Z,29.66
2023-05-21T10:26:24.945Z,29.57
2023-05-21T10:27:24.944Z,29.74
2023-05-21T10:28:24.924Z,29.70
2023-05-21T10:29:24.925Z,29.79
2023-05-21T10:30:24.919Z,29.77
2023-05-21T10:31:25.272Z,29.84
2023-05-21T10:32:25.021Z,29.94
2023-05-21T10:33:24.958Z,30.12
2023-05-21T10:34:24.891Z,30.14
2023-05-21T10:35:24.900Z,29.89
2023-05-21T10:36:24.885Z,29.84
2023-05-21T10:37:24.870Z,29.96
2023-05-21T10:38:24.903Z,30.15
2023-05-21T10:39:24.863Z,30.14
2023-05-21T10:40:24.852Z,30.05
2023-05-21T10:41:24.885Z,29.90
2023-05-21T10:42:24.862Z,30.11
2023-05-21T10:43:24.847Z,30.45
2023-05-21T10:44:24.850Z,30.68
2023-05-21T10:45:24.843Z,31.06
2023-05-21T10:46:24.853Z,31.02
2023-05-21T10:47:24.824Z,30.86
2023-05-21T10:48:24.818Z,30.69
2023-05-21T10:49:24.815Z,30.87
2023-05-21T10:50:24.796Z,31.09
2023-05-21T10:51:24.799Z,31.18
2023-05-21T10:52:24.802Z,30.91
2023-05-21T10:53:24.797Z,30.74
2023-05-21T10:54:24.794Z,30.67
2023-05-21T10:55:24.768Z,30.69
2023-05-21T10:56:24.771Z,30.76
2023-05-21T10:57:24.759Z,30.99
2023-05-21T10:58:24.753Z,30.94
2023-05-21T10:59:24.770Z,30.90
2023-05-21T11:00:24.737Z,30.89
2023-05-21T11:01:24.827Z,30.84
2023-05-21T11:02:24.766Z,30.81
2023-05-21T11:03:24.939Z,30.91
2023-05-21T11:04:24.725Z,30.98
2023-05-21T11:05:24.695Z,30.94
2023-05-21T11:06:24.716Z,31.06
2023-05-21T11:07:24.738Z,31.26
2023-05-21T11:08:24.683Z,31.43
2023-05-21T11:09:24.683Z,31.64
2023-05-21T11:10:24.693Z,31.92
2023-05-21T11:11:24.667Z,31.96
2023-05-21T11:12:24.663Z,32.02
2023-05-21T11:13:24.680Z,32.39
2023-05-21T11:14:24.656Z,32.22
2023-05-21T11:15:24.730Z,32.30
2023-05-21T11:16:24.689Z,32.37
2023-05-21T11:17:24.650Z,32.30
2023-05-21T11:18:24.616Z,32.30
2023-05-21T11:19:24.643Z,32.47
2023-05-21T11:20:24.623Z,32.70
2023-05-21T11:21:24.600Z,32.85
2023-05-21T11:22:24.615Z,33.01
2023-05-21T11:23:24.591Z,33.06
2023-05-21T11:24:24.579Z,33.15
2023-05-21T11:25:24.584Z,32.76
2023-05-21T11:26:24.571Z,32.81
2023-05-21T11:27:24.559Z,32.80
2023-05-21T11:28:24.554Z,32.58
2023-05-21T11:29:24.558Z,32.71
2023-05-21T11:30:24.555Z,32.71
2023-05-21T11:31:24.577Z,32.74
2023-05-21T11:32:24.551Z,32.80
2023-05-21T11:33:24.532Z,32.81
2023-05-21T11:34:24.531Z,32.66
2023-05-21T11:35:24.518Z,32.29
2023-05-21T11:36:24.539Z,32.30
2023-05-21T11:37:24.515Z,32.35
2023-05-21T11:38:24.495Z,32.14
2023-05-21T11:39:24.492Z,32.07
2023-05-21T11:40:24.489Z,31.98
2023-05-21T11:41:24.483Z,32.15
2023-05-21T11:42:24.476Z,32.20
2023-05-21T11:43:24.471Z,32.10
2023-05-21T11:44:24.463Z,32.10
2023-05-21T11:45:24.481Z,32.18
2023-05-21T11:46:24.497Z,32.47
2023-05-21T11:47:24.511Z,32.40
2023-05-21T11:48:26.886Z,32.48
2023-05-21T11:49:24.431Z,32.39
2023-05-21T11:50:24.422Z,32.49
2023-05-21T11:51:24.423Z,32.58
2023-05-21T11:52:24.420Z,32.64
2023-05-21T11:53:24.458Z,32.77
2023-05-21T11:54:24.506Z,33.11
2023-05-21T11:55:24.403Z,33.48
2023-05-21T11:56:24.466Z,33.53
2023-05-21T11:57:24.398Z,33.45
2023-05-21T11:58:24.393Z,33.53
2023-05-21T11:59:24.403Z,33.85
2023-05-21T12:00:24.385Z,34.05
2023-05-21T12:01:24.356Z,34.09
2023-05-21T12:02:25.359Z,34.16
2023-05-21T12:03:24.444Z,34.16
2023-05-21T12:04:24.377Z,34.07
2023-05-21T12:05:24.366Z,34.05
2023-05-21T12:06:24.385Z,33.95
2023-05-21T12:07:24.333Z,33.45
2023-05-21T12:08:24.312Z,33.19
2023-05-21T12:09:24.323Z,33.13
2023-05-21T12:10:24.539Z,32.88
2023-05-21T12:11:24.291Z,32.95
2023-05-21T12:12:24.305Z,33.11
2023-05-21T12:13:24.294Z,33.31
2023-05-21T12:14:24.342Z,33.53
2023-05-21T12:15:24.362Z,33.63
2023-05-21T12:16:24.319Z,33.52
2023-05-21T12:17:24.310Z,33.51
2023-05-21T12:18:24.259Z,33.20
2023-05-21T12:19:24.322Z,33.20
2023-05-21T12:20:24.293Z,33.17
2023-05-21T12:21:24.252Z,33.11
2023-05-21T12:22:24.247Z,33.17
2023-05-21T12:23:24.237Z,33.23
2023-05-21T12:24:24.244Z,33.17
2023-05-21T12:25:24.227Z,33.10
2023-05-21T12:26:24.236Z,33.11
2023-05-21T12:27:24.216Z,33.15
2023-05-21T12:28:24.209Z,33.43
2023-05-21T12:29:24.209Z,33.57
2023-05-21T12:30:24.208Z,33.55
2023-05-21T12:31:24.215Z,33.34
2023-05-21T12:32:24.203Z,33.37
2023-05-21T12:33:25.263Z,33.61
2023-05-21T12:34:25.169Z,33.57
2023-05-21T12:35:24.685Z,33.76
2023-05-21T12:36:24.156Z,33.87
2023-05-21T12:37:24.162Z,33.87
2023-05-21T12:38:24.392Z,33.79
2023-05-21T12:39:24.153Z,33.78
2023-05-21T12:40:24.147Z,33.52
2023-05-21T12:41:24.131Z,33.33
2023-05-21T12:42:24.139Z,32.98
2023-05-21T12:43:24.147Z,32.93
2023-05-21T12:44:24.116Z,32.86
2023-05-21T12:45:24.123Z,32.88
2023-05-21T12:46:24.121Z,32.69
2023-05-21T12:47:24.114Z,32.22
2023-05-21T12:48:24.127Z,32.07
2023-05-21T12:49:24.090Z,32.36
2023-05-21T12:50:24.104Z,32.39
2023-05-21T12:51:24.083Z,32.40
2023-05-21T12:52:24.082Z,32.39
2023-05-21T12:53:24.098Z,32.40
2023-05-21T12:54:24.073Z,32.42